WSSS Airport Information

Runway Information
Runway 02C Length 13123 ft width 197 ft
Elevation 15 ft Threshold 0 ft Heading 23
Runway 20C Length 13123 ft Width 197 ft
Elevation 15 ft Threshold 0 ft Heading 203
Runway 02L Length 13123 ft width 197 ft
Elevation 22 ft Threshold 0 ft Heading 23
Runway 20R Length 13123 ft Width 197 ft
Elevation 14 ft Threshold 2429 ft Heading 203
Runway 02R Length 9015 ft width 195 ft
Elevation 0 ft Threshold 0 ft Heading 23
Runway 20L Length 9015 ft Width 195 ft
Elevation 0 ft Threshold 0 ft Heading 203
Airport Frequencies
Type A/D Name APP/DEP Frequency 120.3 MHZ
Type ARR Name ARR Frequency 119.3 MHZ
Type ATIS Name ATIS Frequency 128.6 MHZ
Type CLD Name CLNC DEL Frequency 121.65 MHZ
Type GND Name GND Frequency 124.3 MHZ
Type TWR Name TWR Frequency 118.6 MHZ
Airport Navaids
Type NDB Name Bedok Frequency 232 KHZ
Type VOR-DME Name Tekong Frequency 116500 KHZ
Airport Weather Information & NOTAM
ADDS - METARS form results

(1523 UTC 24 June 2021)
Data provider http://aviationweather.gov/metar/data/
 
METAR text: WSSS 241500Z 00000KT 9000 -RA FEW018 BKN150 25/25 Q1011 NOSIG
Conditions at: WSSS (SINGAPORE/CHANGI, SG) observed 1500 UTC 24 June 2021
Temperature: 25.0°C (77°F)
Dewpoint: 25.0°C (77°F) [RH = 100%]
Pressure (altimeter): 29.85 inches Hg (1011.0 mb)
Winds: calm
Visibility: 6 miles ( 9 km)
Ceiling: 15000 feet AGL
Clouds: few clouds at 1800 feet AGL
broken clouds at 15000 feet AGL
Weather: -RA  (light rain)

METAR text: WSSS 241430Z VRB01KT 9000 -RA FEW018TCU OVC150 25/25 Q1011 NOSIG
Conditions at: WSSS (SINGAPORE/CHANGI, SG) observed 1430 UTC 24 June 2021
Temperature: 25.0°C (77°F)
Dewpoint: 25.0°C (77°F) [RH = 100%]
Pressure (altimeter): 29.85 inches Hg (1011.0 mb)
Winds: variable direction winds at 1 MPH (1 knots; 0.5 m/s)
Visibility: 6 miles ( 9 km)
Ceiling: 15000 feet AGL
Clouds: few clouds at 1800 feet AGL
overcast cloud deck at 15000 feet AGL
Weather: -RA  (light rain)

Forecast for: WSSS (SINGAPORE/CHANGI, SG)
Text: TAF WSSS 241100Z 2412/2518 21007KT 9999 FEW015CB SCT020
Forecast period: 1200 UTC 24 June 2021 to 1800 UTC 25 June 2021
Forecast type: FROM: standard forecast or significant change
Winds: from the SSW (210 degrees) at 8 MPH (7 knots; 3.6 m/s)
Visibility: 6 or more miles (10+ km)
Ceiling: at least 12,000 feet AGL
Clouds: few clouds at 1500 feet AGL
scattered clouds at 2000 feet AGL
Weather: no significant weather forecast for this period
Text: TEMPO 2502/2505 3000 TSRA FEW012CB BKN015
Forecast period: 0200 to 0500 UTC 25 June 2021
Forecast type: TEMPORARY: The following changes expected for less than half the time period
Visibility: 1.86 miles (2.99 km)
Ceiling: 1500 feet AGL
Clouds: few clouds at 1200 feet AGL
broken clouds at 1500 feet AGL
Weather: TSRA  (rain associated with thunderstorm(s))